Time;durP1;ratioP1;P1;durP2;ratioP2;P2;SDS_P1;SDS_P2;PMS_P1;PMS_P2;Temp;Humidity;BMP_temperature;BMP_pressure;BME280_temperature;BME280_humidity;BME280_pressure;Samples;Min_cycle;Max_cycle;Signal;HPM_P1;HPM_P2
2023/05/12 00:00:41;;;;;;;36.30;5.38;;;32.80;28.20;;;;;;4992064;28;20030;-69
2023/05/12 00:03:07;;;;;;;26.55;3.92;;;32.80;28.30;;;;;;4995380;28;20022;-66
2023/05/12 00:05:34;;;;;;;16.42;4.15;;;32.70;28.00;;;;;;5012471;28;20417;-65
2023/05/12 00:08:00;;;;;;;16.75;4.60;;;32.70;28.30;;;;;;5014830;28;20029;-69
2023/05/12 00:10:27;;;;;;;18.95;4.22;;;32.70;28.30;;;;;;5013295;28;20025;-66
2023/05/12 00:12:54;;;;;;;15.75;3.30;;;32.50;27.90;;;;;;5013877;28;20033;-68
2023/05/12 00:15:21;;;;;;;14.98;3.88;;;32.40;27.90;;;;;;5010969;28;20018;-71
2023/05/12 00:17:48;;;;;;;15.25;3.45;;;32.40;28.10;;;;;;5010747;28;20115;-69
2023/05/12 00:20:14;;;;;;;13.18;4.53;;;32.30;28.20;;;;;;5010312;28;20024;-70
2023/05/12 00:22:40;;;;;;;38.58;26.90;;;32.30;28.30;;;;;;5011579;28;20034;-65
2023/05/12 00:25:08;;;;;;;13.20;4.40;;;32.40;28.60;;;;;;5007591;28;20022;-68
2023/05/12 00:27:34;;;;;;;15.88;4.25;;;32.30;28.20;;;;;;5013200;28;20022;-61
2023/05/12 00:30:00;;;;;;;19.25;3.40;;;32.30;28.40;;;;;;5014821;28;20364;-65
2023/05/12 00:32:27;;;;;;;22.75;4.30;;;32.20;28.20;;;;;;5014484;28;20028;-64
2023/05/12 00:34:53;;;;;;;19.10;4.22;;;32.20;28.10;;;;;;5016891;28;20755;-63
2023/05/12 00:37:20;;;;;;;21.55;4.10;;;32.10;28.10;;;;;;5014597;28;20028;-68
2023/05/12 00:39:46;;;;;;;21.40;3.95;;;32.10;28.60;;;;;;5015184;28;20413;-69
2023/05/12 00:42:12;;;;;;;20.65;4.00;;;32.10;28.40;;;;;;5014949;28;20080;-65
2023/05/12 00:44:39;;;;;;;14.93;4.15;;;32.00;28.60;;;;;;5016314;28;20027;-67
2023/05/12 00:47:05;;;;;;;18.35;4.28;;;31.80;28.50;;;;;;5015104;28;20383;-68
2023/05/12 00:49:32;;;;;;;17.02;4.22;;;31.70;28.80;;;;;;5013171;28;20064;-67
2023/05/12 00:51:59;;;;;;;20.30;4.88;;;31.70;28.80;;;;;;5014957;28;20544;-68
2023/05/12 00:54:26;;;;;;;26.23;4.88;;;31.70;28.50;;;;;;5013123;28;20053;-70
2023/05/12 00:56:53;;;;;;;14.73;3.88;;;31.70;28.80;;;;;;5016140;28;20445;-66
2023/05/12 00:59:19;;;;;;;18.65;3.45;;;31.60;28.70;;;;;;5013977;28;20030;-68
2023/05/12 01:01:47;;;;;;;18.75;3.72;;;31.60;28.80;;;;;;5013576;28;20068;-70
2023/05/12 01:04:13;;;;;;;18.80;4.18;;;31.50;28.80;;;;;;5014945;28;20070;-70
2023/05/12 01:07:08;;;;;;;17.63;3.60;;;31.50;28.90;;;;;;5015591;28;20468;-70
2023/05/12 01:09:35;;;;;;;21.63;3.88;;;31.40;29.00;;;;;;5011168;28;20050;-72
2023/05/12 01:12:02;;;;;;;11.77;3.30;;;31.20;29.30;;;;;;5014064;28;20059;-71
2023/05/12 01:14:28;;;;;;;24.52;4.18;;;31.20;29.20;;;;;;5016093;28;20074;-67
2023/05/12 01:16:59;;;;;;;16.40;4.03;;;31.20;29.60;;;;;;5013418;28;20419;-69
2023/05/12 01:19:49;;;;;;;11.95;3.60;;;31.10;29.40;;;;;;5016838;28;20042;-69
2023/05/12 01:22:16;;;;;;;13.63;3.63;;;31.00;29.30;;;;;;5013818;28;20039;-69
2023/05/12 01:24:51;;;;;;;18.30;4.15;;;31.00;29.50;;;;;;5014312;28;20465;-68
2023/05/12 01:27:19;;;;;;;17.55;3.97;;;30.90;29.60;;;;;;5012957;28;20079;-67
2023/05/12 01:29:47;;;;;;;16.33;3.83;;;30.80;29.60;;;;;;5015025;28;20099;-68
2023/05/12 01:32:15;;;;;;;16.38;3.72;;;31.00;29.80;;;;;;5014066;28;20030;-71
2023/05/12 01:34:42;;;;;;;23.75;3.85;;;31.10;29.60;;;;;;5015418;28;20030;-69
2023/05/12 01:37:09;;;;;;;21.13;3.65;;;31.30;29.60;;;;;;5014191;28;20030;-67
2023/05/12 01:39:36;;;;;;;15.68;3.80;;;31.30;29.30;;;;;;5013300;28;20104;-67
2023/05/12 01:42:04;;;;;;;23.98;3.75;;;31.20;29.10;;;;;;5011414;28;20037;-63
2023/05/12 01:44:31;;;;;;;11.18;3.15;;;31.20;29.20;;;;;;5016757;28;20133;-64
2023/05/12 01:46:57;;;;;;;20.77;4.18;;;31.20;28.80;;;;;;5015312;28;20041;-65
2023/05/12 01:49:23;;;;;;;16.95;3.72;;;31.40;28.70;;;;;;5015632;28;20534;-66
2023/05/12 01:51:50;;;;;;;13.88;3.55;;;31.40;28.80;;;;;;5015904;28;20056;-65
2023/05/12 01:54:16;;;;;;;11.20;2.97;;;31.50;28.40;;;;;;5012984;28;20049;-67
2023/05/12 01:56:43;;;;;;;15.40;3.47;;;32.10;29.00;;;;;;5015276;28;20025;-68
2023/05/12 01:59:09;;;;;;;21.77;3.42;;;31.80;28.50;;;;;;5014949;28;20560;-70
2023/05/12 02:01:36;;;;;;;21.95;3.45;;;31.20;28.80;;;;;;5011558;28;20077;-69
2023/05/12 02:04:03;;;;;;;23.42;3.53;;;30.80;29.20;;;;;;5014171;28;20039;-69
2023/05/12 02:06:31;;;;;;;28.02;3.35;;;30.50;29.40;;;;;;5013537;28;21464;-67
2023/05/12 02:08:57;;;;;;;19.50;3.47;;;30.30;29.30;;;;;;5014201;28;20517;-68
2023/05/12 02:11:24;;;;;;;16.90;3.35;;;30.20;29.70;;;;;;5012150;28;20056;-69
2023/05/12 02:13:51;;;;;;;18.13;3.45;;;30.00;30.00;;;;;;5011903;28;20045;-66
2023/05/12 02:16:17;;;;;;;16.13;3.97;;;29.80;30.00;;;;;;5011288;28;20055;-66
2023/05/12 02:18:44;;;;;;;19.83;3.80;;;29.70;30.00;;;;;;5013743;28;20415;-68
2023/05/12 02:21:10;;;;;;;13.38;3.45;;;29.50;29.60;;;;;;5014126;28;20054;-70
2023/05/12 02:23:36;;;;;;;13.25;3.15;;;29.40;30.00;;;;;;5013187;28;20049;-70
2023/05/12 02:26:03;;;;;;;21.95;3.63;;;29.30;29.90;;;;;;5013373;28;20044;-69
2023/05/12 02:28:29;;;;;;;20.85;3.70;;;29.20;29.90;;;;;;5012987;28;20046;-67
2023/05/12 02:30:56;;;;;;;22.88;3.47;;;29.10;29.90;;;;;;5012684;28;20040;-69
2023/05/12 02:33:23;;;;;;;21.38;3.38;;;29.00;30.10;;;;;;5011744;28;20157;-70
2023/05/12 02:35:49;;;;;;;16.08;3.30;;;28.80;30.50;;;;;;5013536;28;20167;-69
2023/05/12 02:38:16;;;;;;;17.85;3.78;;;28.70;30.70;;;;;;5012975;28;20052;-71
2023/05/12 02:40:42;;;;;;;17.38;3.78;;;28.70;31.00;;;;;;5013329;28;20560;-69
2023/05/12 02:43:09;;;;;;;19.42;3.80;;;28.50;30.70;;;;;;5011127;28;20647;-67
2023/05/12 02:45:35;;;;;;;20.17;3.83;;;28.50;31.20;;;;;;5012487;28;20045;-71
2023/05/12 02:48:01;;;;;;;21.95;3.67;;;28.30;31.20;;;;;;5011773;28;20125;-71
2023/05/12 02:50:28;;;;;;;22.25;3.88;;;28.20;31.60;;;;;;5012004;28;20118;-68
2023/05/12 02:52:54;;;;;;;29.10;4.00;;;28.10;31.80;;;;;;5012728;28;20045;-70
2023/05/12 02:55:21;;;;;;;25.15;4.13;;;28.00;31.80;;;;;;5011569;28;20076;-68
2023/05/12 02:57:47;;;;;;;31.42;4.22;;;27.90;31.90;;;;;;4994008;28;20484;-70
2023/05/12 03:00:14;;;;;;;34.80;3.58;;;27.80;32.10;;;;;;5014254;28;20579;-70
2023/05/12 03:02:41;;;;;;;29.00;4.57;;;27.70;32.10;;;;;;5014874;28;20046;-67
2023/05/12 03:05:10;;;;;;;29.95;4.45;;;27.70;32.50;;;;;;5012307;28;20129;-65
2023/05/12 03:07:37;;;;;;;18.95;3.78;;;27.60;33.60;;;;;;5011458;28;20047;-69
2023/05/12 03:10:04;;;;;;;19.50;4.32;;;27.50;33.50;;;;;;5011958;28;20154;-69
2023/05/12 03:12:30;;;;;;;22.00;4.93;;;27.40;34.10;;;;;;5012021;28;20192;-69
2023/05/12 03:14:57;;;;;;;27.02;5.65;;;27.40;34.00;;;;;;5011836;28;20052;-69
2023/05/12 03:17:23;;;;;;;33.05;6.10;;;27.30;33.60;;;;;;5011930;28;20093;-68
2023/05/12 03:19:50;;;;;;;39.08;9.40;;;27.20;33.70;;;;;;4991185;28;20408;-68
2023/05/12 03:22:16;;;;;;;49.17;11.98;;;27.10;34.60;;;;;;5015013;28;20057;-69
2023/05/12 03:24:43;;;;;;;39.92;12.13;;;27.10;34.10;;;;;;5013773;28;20049;-68
2023/05/12 03:27:09;;;;;;;40.05;12.20;;;26.90;34.30;;;;;;5013584;28;20515;-70
2023/05/12 03:29:35;;;;;;;45.17;12.10;;;26.90;35.60;;;;;;5015393;28;20073;-69
2023/05/12 03:32:02;;;;;;;41.50;11.07;;;26.80;35.50;;;;;;5013018;28;20059;-69
2023/05/12 03:34:28;;;;;;;54.70;11.70;;;26.70;35.30;;;;;;5012871;28;20085;-69
2023/05/12 03:36:54;;;;;;;64.82;11.52;;;26.60;35.60;;;;;;5014477;28;20058;-69
2023/05/12 03:39:23;;;;;;;53.47;10.13;;;26.60;35.90;;;;;;5011931;28;20210;-70
2023/05/12 03:41:49;;;;;;;62.35;11.13;;;26.60;37.00;;;;;;5011831;28;20479;-68
2023/05/12 03:44:16;;;;;;;47.45;10.68;;;26.60;37.10;;;;;;5013486;28;20255;-68
2023/05/12 03:46:42;;;;;;;59.05;10.57;;;26.60;36.50;;;;;;5012401;28;20075;-70
2023/05/12 03:49:09;;;;;;;53.47;10.52;;;26.50;36.50;;;;;;5011955;28;20080;-70
2023/05/12 03:51:35;;;;;;;54.47;9.77;;;26.50;37.10;;;;;;5012747;28;20057;-70
2023/05/12 03:54:01;;;;;;;51.85;9.38;;;26.30;36.70;;;;;;5012834;28;20126;-70
2023/05/12 03:56:28;;;;;;;55.60;9.52;;;26.30;37.00;;;;;;5012634;28;20109;-69
2023/05/12 03:58:55;;;;;;;44.95;8.90;;;26.20;37.20;;;;;;5014196;28;20059;-70
2023/05/12 04:01:22;;;;;;;58.05;9.38;;;26.20;37.10;;;;;;5014038;28;20078;-69
2023/05/12 04:03:48;;;;;;;58.20;8.73;;;26.10;38.20;;;;;;5018649;28;20575;-70
2023/05/12 04:06:15;;;;;;;54.88;8.75;;;26.00;37.90;;;;;;5017476;28;20187;-69
2023/05/12 04:08:41;;;;;;;58.65;9.48;;;26.00;38.30;;;;;;5015621;28;20051;-70
2023/05/12 04:11:08;;;;;;;55.58;9.82;;;25.90;38.80;;;;;;5014755;28;20062;-70
2023/05/12 04:13:34;;;;;;;51.83;9.38;;;25.80;38.20;;;;;;5015417;28;20536;-70
2023/05/12 04:16:01;;;;;;;70.60;9.73;;;25.80;39.50;;;;;;5014905;28;20060;-70
2023/05/12 04:18:27;;;;;;;62.20;10.43;;;25.70;39.40;;;;;;5015399;28;20057;-69
2023/05/12 04:20:54;;;;;;;76.60;12.23;;;25.70;40.20;;;;;;5017158;28;20112;-69
2023/05/12 04:23:21;;;;;;;64.28;13.65;;;25.60;39.20;;;;;;5018240;28;20043;-70
2023/05/12 04:25:48;;;;;;;78.00;12.73;;;25.60;40.30;;;;;;5017579;28;20053;-70
2023/05/12 04:28:14;;;;;;;89.05;12.68;;;25.60;39.70;;;;;;5017057;28;20078;-68
2023/05/12 04:30:41;;;;;;;78.20;11.80;;;25.50;40.20;;;;;;5013534;28;20060;-70
2023/05/12 04:33:08;;;;;;;94.78;12.30;;;25.50;40.10;;;;;;5015733;28;20065;-70
2023/05/12 04:35:35;;;;;;;60.90;10.18;;;25.50;40.40;;;;;;5015683;28;20141;-69
2023/05/12 04:38:02;;;;;;;69.65;10.18;;;25.50;40.00;;;;;;5017307;28;20068;-69
2023/05/12 04:40:29;;;;;;;77.00;11.93;;;25.40;40.60;;;;;;5016652;28;20466;-70
2023/05/12 04:42:55;;;;;;;64.10;11.15;;;25.40;41.70;;;;;;5017481;28;20049;-69
2023/05/12 04:45:21;;;;;;;72.63;12.35;;;25.30;40.80;;;;;;5015865;28;20060;-68
2023/05/12 04:47:48;;;;;;;85.55;13.52;;;25.30;41.30;;;;;;4996022;28;20062;-68
2023/05/12 04:50:14;;;;;;;81.97;12.90;;;25.20;41.00;;;;;;5015670;28;20099;-69
2023/05/12 04:52:41;;;;;;;91.38;16.83;;;25.20;41.10;;;;;;5017190;28;20092;-69
2023/05/12 04:55:08;;;;;;;86.75;17.25;;;25.20;40.90;;;;;;5015037;28;20060;-67
2023/05/12 04:57:34;;;;;;;62.50;16.02;;;25.20;40.60;;;;;;5015414;28;20078;-68
2023/05/12 05:00:03;;;;;;;62.22;15.25;;;25.30;41.20;;;;;;5019319;28;20057;-67
2023/05/12 05:02:33;;;;;;;70.05;14.27;;;25.20;41.40;;;;;;5014295;28;20066;-67
2023/05/12 05:04:59;;;;;;;83.38;15.10;;;25.20;41.00;;;;;;5016174;28;20058;-70
2023/05/12 05:07:26;;;;;;;76.78;14.43;;;25.10;40.80;;;;;;5017176;28;20111;-68
2023/05/12 05:09:52;;;;;;;59.13;14.05;;;25.00;40.30;;;;;;5016068;28;20143;-68
2023/05/12 05:12:19;;;;;;;65.68;13.57;;;25.00;40.50;;;;;;5014829;28;20512;-70
2023/05/12 05:14:46;;;;;;;63.50;13.48;;;25.10;39.60;;;;;;5014859;28;20045;-68
2023/05/12 05:17:12;;;;;;;55.15;11.18;;;25.20;38.90;;;;;;5017871;28;20082;-68
2023/05/12 05:19:39;;;;;;;50.28;11.15;;;25.30;38.60;;;;;;5017024;28;20510;-68
2023/05/12 05:22:05;;;;;;;69.05;12.27;;;25.20;39.10;;;;;;5016571;28;20076;-69
2023/05/12 05:24:32;;;;;;;59.53;11.93;;;25.20;39.50;;;;;;5016287;28;20054;-67
2023/05/12 05:26:58;;;;;;;53.15;13.05;;;25.20;40.40;;;;;;5016162;28;20066;-68
2023/05/12 05:29:25;;;;;;;60.75;12.85;;;25.10;40.10;;;;;;5017050;28;20833;-67
2023/05/12 05:31:51;;;;;;;64.32;12.77;;;25.10;40.10;;;;;;5014286;28;20571;-67
2023/05/12 05:34:18;;;;;;;50.22;11.27;;;25.40;40.10;;;;;;5015669;28;20450;-67
2023/05/12 05:36:44;;;;;;;46.58;11.48;;;25.10;39.80;;;;;;5015231;28;20088;-67
2023/05/12 05:39:11;;;;;;;48.10;11.70;;;25.00;41.00;;;;;;5013376;28;20063;-66
2023/05/12 05:41:38;;;;;;;63.90;11.63;;;24.90;40.50;;;;;;5014430;28;20072;-67
2023/05/12 05:44:05;;;;;;;49.80;10.30;;;24.80;40.20;;;;;;5015000;28;20056;-64
2023/05/12 05:46:31;;;;;;;51.03;10.68;;;24.80;41.20;;;;;;5013636;28;20061;-65
2023/05/12 05:48:58;;;;;;;48.97;10.73;;;24.80;40.50;;;;;;5013664;28;20510;-66
2023/05/12 05:51:24;;;;;;;47.85;10.52;;;24.70;39.70;;;;;;5014104;28;20075;-67
2023/05/12 05:53:50;;;;;;;56.42;11.85;;;24.70;40.40;;;;;;5012053;28;20438;-66
2023/05/12 05:56:17;;;;;;;63.30;12.05;;;24.70;41.40;;;;;;5012671;28;20058;-68
2023/05/12 05:58:43;;;;;;;59.67;10.77;;;24.60;40.40;;;;;;5012159;28;20061;-69
2023/05/12 06:01:10;;;;;;;67.40;11.88;;;24.60;40.70;;;;;;5016327;28;20073;-67
2023/05/12 06:03:36;;;;;;;61.88;10.30;;;24.50;40.80;;;;;;5013626;28;20054;-68
2023/05/12 06:06:03;;;;;;;50.22;10.10;;;24.50;40.80;;;;;;5011289;28;20086;-66
2023/05/12 06:08:29;;;;;;;61.10;11.20;;;24.50;41.20;;;;;;5011110;28;20574;-67
2023/05/12 06:10:56;;;;;;;53.30;10.90;;;24.50;40.80;;;;;;5012419;28;20086;-67
2023/05/12 06:13:22;;;;;;;39.85;9.90;;;24.50;40.80;;;;;;5013359;28;20067;-67
2023/05/12 06:15:49;;;;;;;61.80;9.45;;;24.50;41.10;;;;;;5013839;28;20150;-67
2023/05/12 06:18:16;;;;;;;51.40;9.38;;;24.50;41.00;;;;;;5012837;28;20071;-67
2023/05/12 06:20:42;;;;;;;42.17;9.63;;;24.50;41.20;;;;;;5011961;28;20071;-68
2023/05/12 06:23:09;;;;;;;45.90;9.10;;;24.50;41.60;;;;;;5012081;28;20597;-63
2023/05/12 06:25:36;;;;;;;43.85;8.02;;;24.50;41.20;;;;;;5012669;28;20081;-68
2023/05/12 06:28:02;;;;;;;42.95;7.68;;;24.50;41.90;;;;;;5011127;28;20048;-61
2023/05/12 06:30:28;;;;;;;92.03;9.75;;;24.40;43.00;;;;;;5014644;28;20595;-65
2023/05/12 06:32:55;;;;;;;71.50;8.43;;;24.40;43.80;;;;;;5012169;28;20068;-64
2023/05/12 06:35:21;;;;;;;52.28;7.72;;;24.40;44.70;;;;;;5012541;28;20510;-64
2023/05/12 06:37:50;;;;;;;40.25;6.85;;;24.30;44.80;;;;;;5012019;28;20087;-63
2023/05/12 06:40:17;;;;;;;22.80;6.05;;;24.30;45.40;;;;;;5010853;28;20088;-63
2023/05/12 06:42:43;;;;;;;34.00;5.97;;;24.30;45.80;;;;;;5011171;28;20154;-62
2023/05/12 06:45:11;;;;;;;33.58;5.88;;;24.20;46.10;;;;;;5012409;28;20437;-62
2023/05/12 06:47:39;;;;;;;35.13;6.40;;;24.20;46.50;;;;;;5012978;28;20094;-63
2023/05/12 06:50:07;;;;;;;35.10;6.20;;;24.10;47.00;;;;;;5012106;28;20582;-63
2023/05/12 06:52:34;;;;;;;30.92;5.45;;;24.10;47.20;;;;;;5011137;28;20074;-62
2023/05/12 06:55:00;;;;;;;24.75;5.20;;;24.10;47.60;;;;;;5010921;28;20186;-59
2023/05/12 06:57:26;;;;;;;32.72;5.15;;;24.10;47.90;;;;;;5011787;28;20195;-63
2023/05/12 06:59:53;;;;;;;29.52;5.30;;;24.10;48.20;;;;;;5011409;28;20086;-62
2023/05/12 07:02:20;;;;;;;20.05;4.50;;;24.00;48.20;;;;;;5011711;28;20086;-62
2023/05/12 07:04:46;;;;;;;27.63;5.15;;;24.00;48.60;;;;;;5011893;28;20094;-64
2023/05/12 07:07:12;;;;;;;19.42;4.53;;;24.00;49.10;;;;;;5011354;28;20150;-66
2023/05/12 07:09:41;;;;;;;24.85;5.03;;;24.00;49.00;;;;;;5010835;28;20068;-63
2023/05/12 07:12:08;;;;;;;19.65;4.80;;;24.00;49.50;;;;;;5010855;28;20090;-63
2023/05/12 07:14:34;;;;;;;18.52;4.60;;;24.00;49.70;;;;;;5011238;28;20066;-65
2023/05/12 07:17:00;;;;;;;21.20;4.18;;;23.90;50.00;;;;;;5011182;28;20112;-61
2023/05/12 07:19:27;;;;;;;20.52;4.28;;;23.90;50.10;;;;;;5010970;28;20068;-64
2023/05/12 07:21:53;;;;;;;24.40;4.28;;;23.90;50.20;;;;;;5012438;28;20083;-65
2023/05/12 07:24:20;;;;;;;17.40;4.63;;;23.90;50.20;;;;;;5010909;28;20112;-61
2023/05/12 07:26:46;;;;;;;13.18;3.65;;;23.90;50.20;;;;;;5012324;28;20072;-63
2023/05/12 07:29:12;;;;;;;21.67;3.80;;;23.90;50.00;;;;;;5012704;28;20506;-63
2023/05/12 07:31:39;;;;;;;54.53;5.80;;;23.90;50.00;;;;;;5013008;28;20094;-63
2023/05/12 07:34:06;;;;;;;24.35;5.10;;;23.90;50.00;;;;;;5010372;28;20079;-62
2023/05/12 07:36:32;;;;;;;15.55;4.28;;;23.90;50.20;;;;;;5013084;28;20066;-63
2023/05/12 07:38:58;;;;;;;13.93;4.55;;;23.90;50.20;;;;;;5011750;28;20111;-64
2023/05/12 07:41:25;;;;;;;19.80;4.50;;;23.80;50.30;;;;;;5013115;28;20127;-64
2023/05/12 07:43:51;;;;;;;22.15;4.20;;;23.90;50.40;;;;;;5011495;28;20140;-64
2023/05/12 07:46:18;;;;;;;15.93;4.20;;;23.80;50.40;;;;;;5010536;28;20074;-65
2023/05/12 07:48:44;;;;;;;17.52;4.05;;;23.80;50.40;;;;;;5010512;28;20534;-65
2023/05/12 07:51:10;;;;;;;23.05;3.80;;;23.80;50.40;;;;;;5010933;28;20110;-63
2023/05/12 07:53:37;;;;;;;20.88;4.20;;;23.70;50.70;;;;;;5011763;28;20060;-65
2023/05/12 07:56:04;;;;;;;20.33;3.95;;;23.70;50.80;;;;;;5011386;28;20532;-64
2023/05/12 07:58:30;;;;;;;19.35;4.10;;;23.60;51.00;;;;;;5012950;28;20244;-64
2023/05/12 08:00:58;;;;;;;82.72;6.65;;;23.60;51.00;;;;;;5009734;28;20089;-63
2023/05/12 08:03:25;;;;;;;180.65;12.25;;;23.50;51.20;;;;;;5010999;28;20072;-63
2023/05/12 08:05:52;;;;;;;76.75;7.13;;;23.40;51.40;;;;;;5011833;28;20126;-62
2023/05/12 08:08:18;;;;;;;36.40;5.90;;;23.40;51.40;;;;;;5012321;28;20062;-64
2023/05/12 08:10:45;;;;;;;19.63;3.42;;;23.40;51.40;;;;;;5011713;28;20151;-63
2023/05/12 08:13:11;;;;;;;26.17;4.18;;;23.30;51.30;;;;;;5011934;28;20101;-65
2023/05/12 08:15:38;;;;;;;21.05;3.80;;;23.30;51.40;;;;;;5012673;28;20100;-65
2023/05/12 08:18:04;;;;;;;18.60;4.38;;;23.30;51.40;;;;;;5011188;28;20494;-65
2023/05/12 08:20:31;;;;;;;22.45;4.38;;;23.20;52.10;;;;;;5010563;28;20142;-65
2023/05/12 08:22:57;;;;;;;19.05;3.75;;;23.10;51.90;;;;;;5011453;28;20096;-64
2023/05/12 08:25:23;;;;;;;17.58;4.40;;;23.10;52.10;;;;;;5010808;28;20152;-63
2023/05/12 08:27:50;;;;;;;17.92;4.15;;;23.00;52.80;;;;;;5009425;28;20493;-65
2023/05/12 08:30:16;;;;;;;13.50;3.78;;;23.00;52.00;;;;;;5010041;28;20062;-63
2023/05/12 08:32:43;;;;;;;19.67;3.78;;;23.00;52.20;;;;;;5010679;28;20161;-63
2023/05/12 08:35:09;;;;;;;16.70;4.03;;;23.00;51.50;;;;;;5012308;28;20077;-65
2023/05/12 08:37:36;;;;;;;21.50;5.05;;;23.00;51.30;;;;;;5011684;28;20071;-63
2023/05/12 08:40:06;;;;;;;20.90;4.32;;;23.00;51.40;;;;;;5011199;28;20462;-65
2023/05/12 08:42:43;;;;;;;17.23;4.22;;;23.00;51.20;;;;;;5010576;28;20070;-64
2023/05/12 08:45:11;;;;;;;17.77;3.58;;;23.10;50.80;;;;;;5010471;28;20079;-64
2023/05/12 08:47:39;;;;;;;15.30;3.72;;;23.10;50.30;;;;;;5009417;28;20156;-65
2023/05/12 08:50:07;;;;;;;19.10;3.80;;;23.20;50.00;;;;;;5013292;28;20106;-64
2023/05/12 08:52:34;;;;;;;15.75;3.35;;;23.20;49.80;;;;;;5014049;28;20065;-64
2023/05/12 08:55:02;;;;;;;9.75;3.55;;;23.30;49.70;;;;;;5011767;28;20108;-63
2023/05/12 08:57:30;;;;;;;15.00;4.45;;;23.20;49.80;;;;;;5014088;28;20086;-65
2023/05/12 09:00:00;;;;;;;16.85;4.25;;;23.20;50.20;;;;;;5014566;28;20073;-65
2023/05/12 09:02:29;;;;;;;10.07;3.67;;;23.20;50.20;;;;;;5013789;28;20077;-63
2023/05/12 09:04:56;;;;;;;28.17;10.80;;;23.10;50.20;;;;;;5012999;28;20074;-64
2023/05/12 09:07:26;;;;;;;20.08;3.85;;;23.20;49.80;;;;;;5014796;28;20083;-63
2023/05/12 09:09:56;;;;;;;14.48;4.00;;;23.10;49.90;;;;;;5013864;28;20071;-66
2023/05/12 09:12:24;;;;;;;16.50;3.97;;;23.10;49.20;;;;;;5013217;28;20508;-64
2023/05/12 09:15:03;;;;;;;17.52;4.25;;;23.10;49.20;;;;;;5012983;28;20069;-64
2023/05/12 09:17:29;;;;;;;17.83;4.03;;;23.10;49.10;;;;;;5013388;28;20102;-65
2023/05/12 09:19:56;;;;;;;14.40;4.10;;;23.10;49.20;;;;;;5014819;28;20067;-66
2023/05/12 09:22:29;;;;;;;13.60;3.58;;;23.00;49.20;;;;;;5013186;28;20112;-64
2023/05/12 09:24:56;;;;;;;11.73;3.85;;;23.10;49.10;;;;;;5014372;28;20098;-64
2023/05/12 09:27:29;;;;;;;14.70;3.85;;;23.00;49.20;;;;;;5012300;28;20120;-63
2023/05/12 09:29:56;;;;;;;16.77;3.72;;;23.00;49.20;;;;;;5012666;28;21541;-66
2023/05/12 09:32:32;;;;;;;18.58;3.92;;;23.00;49.30;;;;;;5014937;28;20074;-65
2023/05/12 09:35:05;;;;;;;;;;;22.90;49.60;;;;;;5013540;28;20120;-63
2023/05/12 09:37:33;;;;;;;16.52;3.33;;;22.90;49.70;;;;;;5014091;28;19958;-63
2023/05/12 09:40:04;;;;;;;12.70;3.95;;;22.90;50.00;;;;;;5014814;28;20084;-63
2023/05/12 09:42:32;;;;;;;15.85;3.17;;;22.90;50.10;;;;;;5014051;28;20153;-65
2023/05/12 09:45:06;;;;;;;14.95;4.35;;;22.80;50.40;;;;;;5014272;28;20062;-65
2023/05/12 09:47:37;;;;;;;13.73;3.90;;;22.80;50.60;;;;;;5011365;28;20058;-65
2023/05/12 09:50:05;;;;;;;14.38;3.85;;;22.70;51.10;;;;;;5013048;28;20097;-65
2023/05/12 09:52:37;;;;;;;16.38;3.83;;;22.70;51.30;;;;;;5013278;28;20062;-62
2023/05/12 09:55:08;;;;;;;16.13;4.28;;;22.70;51.60;;;;;;5013989;28;20073;-64
2023/05/12 09:57:43;;;;;;;14.95;4.28;;;22.70;51.90;;;;;;5012504;28;20089;-65
2023/05/12 10:00:16;;;;;;;20.17;3.70;;;22.60;52.00;;;;;;5011429;28;20424;-64
2023/05/12 10:02:48;;;;;;;15.70;4.47;;;22.60;52.40;;;;;;5014650;28;20132;-65
2023/05/12 10:05:19;;;;;;;11.35;3.78;;;22.60;52.70;;;;;;5011128;28;20072;-64
2023/05/12 10:07:52;;;;;;;16.90;4.22;;;22.60;53.10;;;;;;5012238;28;20085;-66
2023/05/12 10:10:22;;;;;;;18.05;4.07;;;22.60;53.30;;;;;;5012732;28;20098;-64
2023/05/12 10:12:50;;;;;;;14.88;4.07;;;22.60;53.40;;;;;;5013857;28;20448;-64
2023/05/12 10:15:19;;;;;;;13.43;3.92;;;22.50;53.50;;;;;;5012322;28;20528;-63
2023/05/12 10:17:46;;;;;;;15.85;4.07;;;22.50;53.90;;;;;;5012508;28;20123;-63
2023/05/12 10:20:14;;;;;;;15.15;4.80;;;22.50;54.50;;;;;;5014224;28;20143;-64
2023/05/12 10:22:41;;;;;;;15.93;4.43;;;22.50;54.80;;;;;;5013873;28;20083;-65
2023/05/12 10:25:08;;;;;;;14.75;4.25;;;22.50;55.20;;;;;;5012214;28;20434;-64
2023/05/12 10:27:35;;;;;;;26.35;4.90;;;22.40;55.80;;;;;;5012604;28;20070;-64
2023/05/12 10:30:04;;;;;;;18.90;4.95;;;22.40;56.00;;;;;;5014628;28;20123;-62
2023/05/12 10:32:31;;;;;;;14.35;4.22;;;22.40;56.30;;;;;;5013485;28;20074;-63
2023/05/12 10:35:10;;;;;;;16.67;4.25;;;22.40;56.80;;;;;;5013177;28;20094;-62
2023/05/12 10:37:36;;;;;;;14.90;4.10;;;22.30;57.10;;;;;;5012134;28;20062;-63
2023/05/12 10:40:03;;;;;;;17.90;4.70;;;22.30;57.50;;;;;;5011841;28;20407;-62
2023/05/12 10:42:42;;;;;;;14.95;4.30;;;22.30;57.80;;;;;;5012846;28;20074;-64
2023/05/12 10:45:19;;;;;;;24.85;4.82;;;22.20;58.20;;;;;;5011035;28;20536;-64
2023/05/12 10:47:46;;;;;;;15.05;4.82;;;22.20;58.50;;;;;;5013146;28;20116;-64
2023/05/12 10:50:13;;;;;;;19.52;5.40;;;22.20;58.90;;;;;;5012260;28;20142;-64
2023/05/12 10:52:56;;;;;;;18.63;5.05;;;22.20;59.10;;;;;;5012376;28;20081;-65
2023/05/12 10:55:32;;;;;;;21.25;5.28;;;22.20;59.60;;;;;;5011977;28;20120;-64
2023/05/12 10:58:06;;;;;;;;;;;22.20;60.90;;;;;;4998540;28;20136;-60
2023/05/12 11:00:48;;;;;;;22.75;5.72;;;22.20;60.50;;;;;;5010021;28;19975;-64
2023/05/12 11:03:16;;;;;;;14.48;5.50;;;22.10;61.40;;;;;;5013150;28;20153;-63
2023/05/12 11:05:44;;;;;;;19.73;6.28;;;22.00;62.00;;;;;;5013080;28;20104;-63
2023/05/12 11:08:11;;;;;;;26.83;6.93;;;22.00;62.90;;;;;;5013036;28;20067;-64
2023/05/12 11:10:41;;;;;;;22.52;6.32;;;22.10;63.20;;;;;;5012670;28;20154;-64
2023/05/12 11:13:08;;;;;;;16.63;6.32;;;22.00;63.40;;;;;;5012540;28;20090;-62
2023/05/12 11:15:34;;;;;;;18.70;6.65;;;22.00;63.70;;;;;;5012010;28;20070;-63
2023/05/12 11:18:04;;;;;;;25.05;7.38;;;22.00;64.60;;;;;;5012395;28;20084;-65
2023/05/12 11:20:31;;;;;;;24.92;7.80;;;22.00;65.10;;;;;;5012357;28;20550;-65
2023/05/12 11:22:57;;;;;;;22.13;7.65;;;22.00;65.00;;;;;;5008900;28;20072;-64
2023/05/12 11:25:27;;;;;;;188.68;14.82;;;22.00;65.40;;;;;;5012390;28;20553;-65
2023/05/12 11:27:53;;;;;;;42.03;8.77;;;22.00;65.70;;;;;;5011483;28;20081;-64
2023/05/12 11:30:20;;;;;;;21.10;8.30;;;21.90;66.30;;;;;;5008813;28;20149;-63
2023/05/12 11:32:46;;;;;;;25.63;7.75;;;21.90;67.10;;;;;;5011880;28;20132;-65
2023/05/12 11:35:15;;;;;;;22.80;8.05;;;21.90;67.60;;;;;;5011301;28;20150;-64
2023/05/12 11:37:43;;;;;;;22.67;8.65;;;21.90;67.80;;;;;;5011790;28;20072;-66
2023/05/12 11:40:17;;;;;;;17.65;8.77;;;21.90;68.10;;;;;;5011980;28;20581;-64
2023/05/12 11:42:50;;;;;;;66.70;10.73;;;21.90;68.90;;;;;;5010696;28;20086;-64
2023/05/12 11:45:29;;;;;;;29.10;8.20;;;21.80;69.10;;;;;;5011185;28;20082;-64
2023/05/12 11:48:07;;;;;;;24.23;7.85;;;21.80;69.40;;;;;;5011187;28;20533;-64
2023/05/12 11:50:36;;;;;;;22.58;8.23;;;21.70;69.60;;;;;;5012220;28;20228;-64
2023/05/12 11:53:03;;;;;;;20.15;7.80;;;21.70;69.80;;;;;;5013774;28;20411;-62
2023/05/12 11:55:29;;;;;;;27.35;7.30;;;21.70;69.70;;;;;;5010413;28;20075;-64
2023/05/12 11:57:58;;;;;;;20.27;7.05;;;21.70;69.80;;;;;;5013154;28;20145;-63
2023/05/12 12:00:31;;;;;;;31.05;8.77;;;21.60;69.50;;;;;;5011914;28;20066;-63
2023/05/12 12:03:11;;;;;;;25.17;6.50;;;21.60;69.90;;;;;;5010645;28;20605;-64
2023/05/12 12:05:40;;;;;;;24.75;7.18;;;21.50;70.10;;;;;;5012047;28;20726;-64
2023/05/12 12:08:08;;;;;;;20.50;6.90;;;21.40;71.50;;;;;;5011213;28;20077;-64
2023/05/12 12:10:35;;;;;;;26.88;8.10;;;21.40;71.20;;;;;;5009416;28;20155;-63
2023/05/12 12:13:01;;;;;;;22.25;6.93;;;21.30;70.80;;;;;;5010121;28;20432;-64
2023/05/12 12:15:28;;;;;;;27.00;7.07;;;21.30;70.90;;;;;;5010379;28;20168;-64
2023/05/12 12:17:55;;;;;;;21.70;6.68;;;21.30;70.90;;;;;;5012996;28;20429;-65
2023/05/12 12:20:23;;;;;;;28.08;7.25;;;21.30;71.10;;;;;;5011733;28;20116;-63
2023/05/12 12:22:50;;;;;;;20.63;6.43;;;21.30;71.00;;;;;;5011789;28;20485;-63
2023/05/12 12:25:18;;;;;;;18.92;6.10;;;21.30;71.00;;;;;;5015207;28;20083;-64
2023/05/12 12:27:44;;;;;;;20.58;6.63;;;21.20;70.90;;;;;;5014642;28;20086;-63
2023/05/12 12:30:11;;;;;;;25.25;7.18;;;21.10;71.80;;;;;;5015525;28;20058;-67
2023/05/12 12:32:38;;;;;;;23.33;6.20;;;21.20;71.40;;;;;;5015742;28;20150;-63
2023/05/12 12:35:05;;;;;;;28.02;6.88;;;21.10;71.40;;;;;;5015647;28;20075;-63
2023/05/12 12:37:32;;;;;;;20.73;6.93;;;21.10;71.90;;;;;;5014524;28;20070;-63